Time;durP1;ratioP1;P1;durP2;ratioP2;P2;SDS_P1;SDS_P2;PMS_P1;PMS_P2;Temp;Humidity;BMP_temperature;BMP_pressure;BME280_temperature;BME280_humidity;BME280_pressure;Samples;Min_cycle;Max_cycle;Signal;HPM_P1;HPM_P2
2023/12/16 00:00:59;;;;;;;11.37;7.10;;;5.80;99.90;5.70;102491.00;;;;4928320;28;83040;-71
2023/12/16 00:03:28;;;;;;;18.13;9.03;;;6.10;99.90;5.60;102494.00;;;;4913887;28;83817;-71
2023/12/16 00:05:53;;;;;;;14.20;8.40;;;5.80;99.90;5.60;102479.00;;;;4908987;28;83728;-69
2023/12/16 00:08:19;;;;;;;19.73;7.47;;;5.90;99.90;5.60;102481.00;;;;4909881;28;109709;-71
2023/12/16 00:10:45;;;;;;;13.63;7.80;;;6.50;99.90;5.60;102478.00;;;;4896802;28;108506;-71
2023/12/16 00:13:11;;;;;;;13.07;8.03;;;5.70;99.90;5.60;102481.00;;;;4911342;28;113841;-68
2023/12/16 00:15:36;;;;;;;18.23;8.60;;;6.70;99.90;5.60;102483.00;;;;4909090;28;84195;-72
2023/12/16 00:18:02;;;;;;;13.73;8.83;;;6.30;99.90;5.60;102504.00;;;;4907520;28;83000;-72
2023/12/16 00:20:28;;;;;;;14.37;8.07;;;5.80;99.90;5.60;102495.00;;;;4906570;28;83049;-73
2023/12/16 00:22:54;;;;;;;18.07;8.33;;;5.90;99.90;5.60;102500.00;;;;4910377;28;82756;-69
2023/12/16 00:25:19;;;;;;;14.57;8.37;;;6.00;99.90;5.60;102506.00;;;;4913268;28;111955;-71
2023/12/16 00:27:45;;;;;;;19.30;6.93;;;5.80;99.90;5.60;102506.00;;;;4914514;28;82673;-73
2023/12/16 00:30:11;;;;;;;11.60;7.07;;;6.50;99.90;5.60;102505.00;;;;4914533;28;103931;-73
2023/12/16 00:32:39;;;;;;;13.87;7.20;;;5.80;99.90;5.60;102487.00;;;;4912861;28;82642;-72
2023/12/16 00:35:07;;;;;;;13.77;7.53;;;5.80;99.90;5.60;102480.00;;;;4916510;28;83155;-75
2023/12/16 00:37:33;;;;;;;11.30;7.50;;;5.80;99.90;5.60;102480.00;;;;4898034;28;84243;-71
2023/12/16 00:39:59;;;;;;;10.40;7.77;;;6.00;99.90;5.60;102486.00;;;;4912296;28;83753;-71
2023/12/16 00:42:25;;;;;;;21.13;9.00;;;5.80;99.90;5.60;102493.00;;;;4908743;28;84074;-74
2023/12/16 00:44:50;;;;;;;13.50;7.40;;;6.50;99.90;5.60;102497.00;;;;4907200;28;111979;-71
2023/12/16 00:47:16;;;;;;;9.80;6.20;;;5.80;99.90;5.60;102497.00;;;;4908216;28;108689;-71
2023/12/16 00:49:42;;;;;;;15.47;7.00;;;5.80;99.90;5.60;102493.00;;;;4907374;28;82858;-71
2023/12/16 00:52:09;;;;;;;18.13;7.50;;;5.80;99.90;5.60;102505.00;;;;4909383;28;83864;-71
2023/12/16 00:54:35;;;;;;;19.33;7.90;;;6.40;99.90;5.60;102503.00;;;;4909400;28;83262;-72
2023/12/16 00:57:00;;;;;;;12.40;6.43;;;6.40;99.90;5.60;102512.00;;;;4909958;28;82188;-74
2023/12/16 00:59:26;;;;;;;11.30;7.17;;;6.30;99.90;5.60;102496.00;;;;4912407;28;107654;-74
2023/12/16 01:01:52;;;;;;;10.23;7.03;;;5.80;99.90;5.60;102494.00;;;;4905650;28;113501;-71
2023/12/16 01:04:18;;;;;;;11.73;7.67;;;5.70;99.90;5.60;102500.00;;;;4901876;28;94380;-70
2023/12/16 01:06:44;;;;;;;15.33;7.80;;;6.50;99.90;5.70;102507.00;;;;4907933;28;110688;-72
2023/12/16 01:09:12;;;;;;;15.37;7.63;;;6.30;99.90;5.70;102501.00;;;;4905288;28;82771;-71
2023/12/16 01:11:39;;;;;;;17.33;8.07;;;5.80;99.90;5.70;102498.00;;;;4909994;28;83351;-72
2023/12/16 01:14:05;;;;;;;12.10;7.67;;;6.30;99.90;5.70;102500.00;;;;4914440;28;89418;-72
2023/12/16 01:16:31;;;;;;;17.40;8.33;;;6.30;99.90;5.70;102502.00;;;;4912843;28;109258;-71
2023/12/16 01:18:56;;;;;;;12.20;7.87;;;5.90;99.90;5.70;102510.00;;;;4911332;28;100876;-69
2023/12/16 01:21:22;;;;;;;24.67;8.03;;;5.90;99.90;5.70;102522.00;;;;4925815;28;110919;-71
2023/12/16 01:23:48;;;;;;;14.63;7.50;;;5.90;99.90;5.70;102528.00;;;;4907461;28;112628;-71
2023/12/16 01:26:13;;;;;;;13.40;7.47;;;5.90;99.90;5.70;102529.00;;;;4914665;28;109967;-71
2023/12/16 01:28:39;;;;;;;11.87;8.23;;;6.40;99.90;5.70;102539.00;;;;4910158;28;96813;-71
2023/12/16 01:31:05;;;;;;;13.20;7.83;;;6.00;99.90;5.70;102530.00;;;;4907856;28;83170;-72
2023/12/16 01:33:30;;;;;;;10.60;7.23;;;6.00;99.90;5.70;102537.00;;;;4908041;28;98110;-71
2023/12/16 01:35:57;;;;;;;14.13;7.60;;;6.00;99.90;5.70;102528.00;;;;4908914;28;109924;-72
2023/12/16 01:38:23;;;;;;;12.87;7.73;;;6.40;99.90;5.80;102526.00;;;;4910615;28;82802;-72
2023/12/16 01:40:48;;;;;;;15.93;8.70;;;5.90;99.90;5.80;102517.00;;;;4908926;28;93751;-69
2023/12/16 01:43:14;;;;;;;13.83;8.00;;;5.90;99.90;5.80;102518.00;;;;4907202;28;112493;-72
2023/12/16 01:45:40;;;;;;;14.83;7.93;;;6.00;99.90;5.80;102514.00;;;;4912547;28;82920;-70
2023/12/16 01:48:06;;;;;;;16.00;7.67;;;6.00;99.90;5.80;102520.00;;;;4907173;28;82878;-71
2023/12/16 01:50:35;;;;;;;12.80;8.63;;;6.60;99.90;5.80;102516.00;;;;4908048;28;82858;-71
2023/12/16 01:53:03;;;;;;;14.33;8.40;;;6.50;99.90;5.80;102519.00;;;;4922173;28;112604;-71
2023/12/16 01:55:29;;;;;;;14.57;8.20;;;6.00;99.90;5.80;102523.00;;;;4925551;28;82629;-70
2023/12/16 01:57:55;;;;;;;10.07;7.60;;;6.00;99.90;5.80;102520.00;;;;4908523;28;110170;-70
2023/12/16 02:00:23;;;;;;;16.73;7.40;;;6.00;99.90;5.80;102528.00;;;;4907858;28;113158;-72
2023/12/16 02:02:49;;;;;;;11.37;8.13;;;6.40;99.90;5.80;102523.00;;;;4908523;28;82964;-70
2023/12/16 02:05:15;;;;;;;15.20;8.13;;;6.00;99.90;5.80;102524.00;;;;4908030;28;107415;-72
2023/12/16 02:07:43;;;;;;;12.60;7.10;;;6.00;99.90;5.80;102525.00;;;;4912085;28;108322;-69
2023/12/16 02:10:09;;;;;;;8.33;6.27;;;6.00;99.90;5.80;102531.00;;;;4909086;28;84750;-70
2023/12/16 02:12:35;;;;;;;15.70;7.87;;;6.20;99.90;5.80;102529.00;;;;4911643;28;82701;-70
2023/12/16 02:15:02;;;;;;;15.07;7.97;;;6.00;99.90;5.80;102537.00;;;;4912808;28;108022;-70
2023/12/16 02:17:28;;;;;;;19.20;7.70;;;6.30;99.90;5.80;102540.00;;;;4904790;28;83899;-69
2023/12/16 02:19:54;;;;;;;10.20;7.97;;;6.70;99.90;5.80;102520.00;;;;4909886;28;111224;-70
2023/12/16 02:22:21;;;;;;;16.47;7.77;;;6.00;99.90;5.80;102530.00;;;;4912875;28;83112;-69
2023/12/16 02:24:51;;;;;;;15.37;8.50;;;6.60;99.90;5.80;102529.00;;;;4911750;28;82621;-69
2023/12/16 02:27:17;;;;;;;15.13;7.70;;;6.30;99.90;5.80;102530.00;;;;4908225;28;108479;-69
2023/12/16 02:29:42;;;;;;;16.43;7.37;;;6.50;99.90;5.80;102531.00;;;;4911145;28;83356;-72
2023/12/16 02:32:09;;;;;;;15.67;7.10;;;6.60;99.90;5.80;102520.00;;;;4907904;28;111503;-72
2023/12/16 02:34:35;;;;;;;11.13;6.50;;;6.10;99.90;5.80;102521.00;;;;4909119;28;82155;-70
2023/12/16 02:37:05;;;;;;;14.13;7.40;;;6.50;99.90;5.80;102518.00;;;;4909676;28;82738;-68
2023/12/16 02:39:34;;;;;;;16.93;8.63;;;5.90;99.90;5.80;102525.00;;;;4915988;28;84102;-69
2023/12/16 02:42:00;;;;;;;11.07;6.83;;;6.00;99.90;5.80;102529.00;;;;4911142;28;112011;-70
2023/12/16 02:44:26;;;;;;;17.53;8.40;;;6.20;99.90;5.80;102534.00;;;;4915305;28;83764;-70
2023/12/16 02:46:52;;;;;;;12.63;6.90;;;6.00;99.90;5.80;102534.00;;;;4910404;28;107824;-70
2023/12/16 02:49:17;;;;;;;20.60;8.33;;;6.30;99.90;5.80;102548.00;;;;4909735;28;111322;-68
2023/12/16 02:51:43;;;;;;;12.53;8.27;;;6.50;99.90;5.80;102544.00;;;;4914028;28;113267;-70
2023/12/16 02:54:09;;;;;;;14.97;7.50;;;6.00;99.90;5.80;102546.00;;;;4911088;28;111055;-70
2023/12/16 02:56:34;;;;;;;10.83;6.27;;;6.50;99.90;5.80;102545.00;;;;4912971;28;91544;-70
2023/12/16 02:59:01;;;;;;;19.40;7.47;;;6.50;99.90;5.80;102557.00;;;;4913075;28;111475;-72
2023/12/16 03:01:27;;;;;;;16.47;7.83;;;6.50;99.90;5.80;102552.00;;;;4910127;28;102026;-70
2023/12/16 03:03:52;;;;;;;13.47;7.30;;;6.40;99.90;5.80;102554.00;;;;4909689;28;82998;-70
2023/12/16 03:06:18;;;;;;;14.00;7.17;;;6.20;99.90;5.80;102565.00;;;;4914003;28;83556;-72
2023/12/16 03:08:44;;;;;;;12.97;8.00;;;6.20;99.90;5.80;102564.00;;;;4918656;28;113068;-69
2023/12/16 03:11:09;;;;;;;14.37;8.17;;;6.60;99.90;5.80;102558.00;;;;4913392;28;92263;-70
2023/12/16 03:13:35;;;;;;;18.60;8.13;;;5.90;99.90;5.80;102561.00;;;;4911762;28;99414;-70
2023/12/16 03:16:01;;;;;;;14.27;8.30;;;6.00;99.90;5.80;102568.00;;;;4913536;28;82870;-70
2023/12/16 03:18:27;;;;;;;11.97;7.87;;;6.60;99.90;5.80;102585.00;;;;4910647;28;112111;-70
2023/12/16 03:20:53;;;;;;;21.20;7.70;;;6.00;99.90;5.80;102584.00;;;;4912547;28;93050;-71
2023/12/16 03:23:18;;;;;;;12.87;8.73;;;6.00;99.90;5.80;102573.00;;;;4912829;28;84268;-69
2023/12/16 03:25:44;;;;;;;14.70;7.60;;;6.00;99.90;5.80;102573.00;;;;4911504;28;96194;-69
2023/12/16 03:28:10;;;;;;;9.63;7.10;;;6.00;99.90;5.80;102562.00;;;;4914166;28;83804;-71
2023/12/16 03:30:40;;;;;;;14.90;6.90;;;6.00;99.90;5.80;102560.00;;;;4915773;28;83858;-71
2023/12/16 03:33:07;;;;;;;9.67;6.90;;;6.00;99.90;5.80;102560.00;;;;4909195;28;91344;-70
2023/12/16 03:35:33;;;;;;;13.87;7.70;;;6.80;99.90;5.80;102566.00;;;;4911564;28;83207;-70
2023/12/16 03:38:00;;;;;;;9.17;5.47;;;6.30;99.90;5.80;102563.00;;;;4912631;28;99179;-71
2023/12/16 03:40:26;;;;;;;10.63;7.13;;;6.10;99.90;5.80;102559.00;;;;4909339;28;83699;-70
2023/12/16 03:42:52;;;;;;;10.50;6.80;;;6.50;99.90;5.80;102552.00;;;;4912055;28;94887;-69
2023/12/16 03:45:18;;;;;;;15.60;8.27;;;6.00;99.90;5.80;102551.00;;;;4920545;28;108112;-70
2023/12/16 03:47:43;;;;;;;22.83;7.43;;;6.20;99.90;5.80;102550.00;;;;4910512;28;100158;-70
2023/12/16 03:50:09;;;;;;;10.10;7.53;;;6.00;99.90;5.80;102549.00;;;;4907352;28;110564;-69
2023/12/16 03:52:35;;;;;;;12.27;6.70;;;6.20;99.90;5.80;102555.00;;;;4926020;28;97037;-70
2023/12/16 03:55:00;;;;;;;11.00;7.30;;;6.50;99.90;5.80;102560.00;;;;4908499;28;92584;-71
2023/12/16 03:57:29;;;;;;;7.60;6.57;;;6.60;99.90;5.80;102563.00;;;;4907293;28;113056;-69
2023/12/16 03:59:54;;;;;;;8.23;6.47;;;6.50;99.90;5.80;102561.00;;;;4900494;28;83937;-70
2023/12/16 04:02:20;;;;;;;9.93;6.77;;;6.00;99.90;5.80;102562.00;;;;4906750;28;111419;-69
2023/12/16 04:04:46;;;;;;;8.63;5.37;;;6.00;99.90;5.80;102567.00;;;;4912782;28;108912;-70
2023/12/16 04:07:11;;;;;;;12.23;6.30;;;6.00;99.90;5.80;102570.00;;;;4908356;28;112013;-69
2023/12/16 04:09:40;;;;;;;9.37;6.20;;;6.00;99.90;5.80;102566.00;;;;4908171;28;111186;-70
2023/12/16 04:12:06;;;;;;;13.67;7.10;;;6.70;99.90;5.80;102565.00;;;;4912782;28;102233;-71
2023/12/16 04:14:56;;;;;;;19.47;6.63;;;6.00;99.90;5.80;102572.00;;;;4910357;28;82742;-70
2023/12/16 04:17:22;;;;;;;11.23;5.10;;;5.50;99.90;5.80;102574.00;;;;4908719;28;111758;-70
2023/12/16 04:19:52;;;;;;;8.97;5.20;;;6.60;99.90;5.80;102561.00;;;;4909320;28;83934;-70
2023/12/16 04:22:19;;;;;;;11.63;5.70;;;5.90;99.90;5.80;102567.00;;;;4911275;28;83029;-72
2023/12/16 04:24:46;;;;;;;11.50;5.97;;;6.60;99.90;5.70;102580.00;;;;4910510;28;101235;-70
2023/12/16 04:27:12;;;;;;;16.47;5.37;;;6.10;99.90;5.70;102582.00;;;;4916254;28;86938;-72
2023/12/16 04:29:38;;;;;;;10.67;6.40;;;5.90;99.90;5.70;102576.00;;;;4908072;28;112997;-69
2023/12/16 04:32:03;;;;;;;12.53;5.40;;;6.40;99.90;5.70;102584.00;;;;4908709;28;110040;-70
2023/12/16 04:34:29;;;;;;;8.00;5.13;;;5.90;99.90;5.70;102583.00;;;;4912761;28;101073;-70
2023/12/16 04:36:55;;;;;;;9.77;4.83;;;5.90;99.90;5.70;102587.00;;;;4914390;28;110952;-72
2023/12/16 04:39:21;;;;;;;10.37;5.80;;;5.90;99.90;5.70;102594.00;;;;4909306;28;110973;-71
2023/12/16 04:41:46;;;;;;;12.47;5.63;;;5.90;99.90;5.70;102587.00;;;;4910575;28;110332;-71
2023/12/16 04:44:12;;;;;;;9.93;5.00;;;5.90;99.90;5.70;102592.00;;;;4908407;28;109771;-69
2023/12/16 04:46:37;;;;;;;7.07;4.70;;;6.60;99.90;5.70;102595.00;;;;4910974;28;111478;-70
2023/12/16 04:49:03;;;;;;;7.83;5.00;;;6.10;99.90;5.70;102600.00;;;;4912416;28;110262;-72
2023/12/16 04:51:29;;;;;;;5.27;4.60;;;6.10;99.90;5.70;102595.00;;;;4912824;28;110681;-72
2023/12/16 04:53:56;;;;;;;11.13;4.37;;;6.00;99.90;5.70;102588.00;;;;4907457;28;109450;-72
2023/12/16 04:56:22;;;;;;;6.87;4.53;;;6.20;99.90;5.80;102599.00;;;;4909712;28;83856;-70
2023/12/16 04:58:48;;;;;;;9.13;5.10;;;6.20;99.90;5.80;102593.00;;;;4910148;28;104046;-70
2023/12/16 05:01:14;;;;;;;14.33;5.13;;;6.40;99.90;5.80;102583.00;;;;4913202;28;109446;-70
2023/12/16 05:03:41;;;;;;;5.13;4.63;;;6.20;99.90;5.80;102577.00;;;;4908265;28;107872;-72
2023/12/16 05:06:07;;;;;;;7.20;4.70;;;6.20;99.90;5.80;102588.00;;;;4908171;28;85926;-73
2023/12/16 05:08:33;;;;;;;4.50;4.00;;;6.00;99.90;5.80;102588.00;;;;4910056;28;100591;-70
2023/12/16 05:10:59;;;;;;;7.67;4.77;;;6.00;99.90;5.80;102594.00;;;;4907482;28;111160;-72
2023/12/16 05:13:24;;;;;;;10.50;4.97;;;5.90;99.90;5.80;102600.00;;;;4907522;28;83033;-71
2023/12/16 05:15:51;;;;;;;11.90;5.60;;;5.90;99.90;5.80;102591.00;;;;4908891;28;113138;-70
2023/12/16 05:18:18;;;;;;;5.63;3.93;;;6.60;99.90;5.80;102590.00;;;;4910040;28;82776;-70
2023/12/16 05:20:44;;;;;;;9.57;5.27;;;5.90;99.90;5.70;102575.00;;;;4911000;28;82960;-73
2023/12/16 05:23:09;;;;;;;9.13;4.93;;;6.60;99.90;5.70;102567.00;;;;4908068;28;107092;-72
2023/12/16 05:25:35;;;;;;;7.50;4.17;;;6.30;99.90;5.70;102572.00;;;;4912713;28;111220;-70
2023/12/16 05:28:02;;;;;;;9.60;5.10;;;6.40;99.90;5.60;102559.00;;;;4912099;28;82793;-70
2023/12/16 05:30:27;;;;;;;5.43;3.50;;;5.80;99.90;5.60;102559.00;;;;4918953;28;83082;-71
2023/12/16 05:32:53;;;;;;;8.83;3.70;;;6.50;99.90;5.60;102558.00;;;;4908220;28;87897;-71
2023/12/16 05:35:19;;;;;;;8.83;5.23;;;5.80;99.90;5.60;102560.00;;;;4914690;28;83512;-73
2023/12/16 05:37:46;;;;;;;5.73;3.63;;;5.80;99.90;5.60;102565.00;;;;4912982;28;82983;-73
2023/12/16 05:40:12;;;;;;;6.70;3.97;;;6.20;99.90;5.60;102561.00;;;;4909778;28;100010;-71
2023/12/16 05:42:39;;;;;;;13.90;4.93;;;5.80;99.90;5.60;102565.00;;;;4912726;28;82866;-71
2023/12/16 05:45:06;;;;;;;6.30;3.90;;;5.80;99.90;5.60;102566.00;;;;4913995;28;83205;-70
2023/12/16 05:47:32;;;;;;;5.57;3.30;;;5.80;99.90;5.60;102566.00;;;;4910088;28;83254;-70
2023/12/16 05:49:57;;;;;;;7.83;4.43;;;5.70;99.90;5.60;102578.00;;;;4910114;28;82135;-73
2023/12/16 05:52:23;;;;;;;13.47;3.97;;;5.90;99.90;5.60;102572.00;;;;4908407;28;110106;-71
2023/12/16 05:54:49;;;;;;;7.27;3.73;;;5.70;99.90;5.60;102565.00;;;;4908434;28;112811;-73
2023/12/16 05:57:14;;;;;;;6.07;4.60;;;6.40;99.90;5.50;102563.00;;;;4906613;28;113605;-72
2023/12/16 05:59:40;;;;;;;5.97;3.47;;;5.80;99.90;5.50;102561.00;;;;4909841;28;108161;-71
2023/12/16 06:02:06;;;;;;;10.33;4.60;;;6.00;99.90;5.50;102559.00;;;;4904979;28;101402;-70
2023/12/16 06:04:31;;;;;;;8.17;4.33;;;5.70;99.90;5.50;102574.00;;;;4908156;28;113014;-71
2023/12/16 06:06:57;;;;;;;4.27;2.90;;;5.70;99.90;5.40;102566.00;;;;4903061;28;112807;-72
2023/12/16 06:09:23;;;;;;;4.73;3.60;;;5.80;99.90;5.40;102584.00;;;;4910584;28;110314;-72
2023/12/16 06:11:48;;;;;;;5.57;3.47;;;5.60;99.90;5.40;102572.00;;;;4907002;28;82925;-71
2023/12/16 06:14:14;;;;;;;10.70;4.90;;;5.70;99.90;5.40;102585.00;;;;4905942;28;111143;-73
2023/12/16 06:16:40;;;;;;;9.77;4.40;;;5.90;99.90;5.30;102597.00;;;;4908825;28;110792;-74
2023/12/16 06:19:05;;;;;;;4.87;3.50;;;6.00;99.90;5.40;102618.00;;;;4910433;28;82776;-72
2023/12/16 06:21:31;;;;;;;6.20;3.80;;;5.60;99.90;5.30;102625.00;;;;4908171;28;83810;-71
2023/12/16 06:24:00;;;;;;;5.27;3.43;;;5.60;99.90;5.40;102635.00;;;;4914059;28;111730;-71
2023/12/16 06:26:26;;;;;;;7.77;4.40;;;6.00;99.90;5.40;102631.00;;;;4910458;28;83198;-74
2023/12/16 06:28:52;;;;;;;4.13;2.90;;;6.20;99.90;5.40;102621.00;;;;4911248;28;82754;-73
2023/12/16 06:31:18;;;;;;;5.67;4.37;;;5.70;99.90;5.40;102642.00;;;;4910676;28;82712;-71
2023/12/16 06:33:44;;;;;;;9.47;4.23;;;5.60;99.90;5.50;102640.00;;;;4904368;28;95597;-73
2023/12/16 06:36:10;;;;;;;8.90;3.87;;;5.70;99.90;5.50;102643.00;;;;4914340;28;82922;-70
2023/12/16 06:38:36;;;;;;;8.33;4.93;;;5.60;99.90;5.50;102643.00;;;;4907617;28;108261;-71
2023/12/16 06:41:05;;;;;;;9.93;3.77;;;5.70;99.90;5.50;102647.00;;;;4909113;28;82836;-71
2023/12/16 06:43:30;;;;;;;11.30;4.57;;;5.70;99.90;5.50;102639.00;;;;4908853;28;88892;-73
2023/12/16 06:45:56;;;;;;;7.90;4.10;;;5.60;99.90;5.50;102643.00;;;;4909554;28;110814;-73
2023/12/16 06:48:22;;;;;;;6.90;3.77;;;5.70;99.90;5.60;102643.00;;;;4904876;28;110463;-71
2023/12/16 06:50:51;;;;;;;5.43;3.30;;;5.70;99.90;5.60;102626.00;;;;4908877;28;108811;-70
2023/12/16 06:53:20;;;;;;;7.03;3.13;;;6.30;99.90;5.60;102638.00;;;;4914688;28;83061;-70
2023/12/16 06:55:45;;;;;;;5.30;3.83;;;5.80;99.90;5.60;102634.00;;;;4910417;28;111770;-73
2023/12/16 06:58:11;;;;;;;5.43;3.37;;;5.80;99.90;5.60;102629.00;;;;4911292;28;110096;-71
2023/12/16 07:00:37;;;;;;;6.63;3.47;;;5.80;99.90;5.60;102644.00;;;;4909904;28;103758;-70
2023/12/16 07:03:02;;;;;;;12.60;4.00;;;5.80;99.90;5.60;102653.00;;;;4906608;28;86659;-71
2023/12/16 07:05:28;;;;;;;5.03;3.13;;;6.30;99.90;5.60;102662.00;;;;4907808;28;111619;-70
2023/12/16 07:07:54;;;;;;;6.33;3.77;;;5.80;99.90;5.60;102671.00;;;;4907508;28;89502;-72
2023/12/16 07:10:20;;;;;;;5.70;3.57;;;5.80;99.90;5.60;102676.00;;;;4907911;28;108146;-71
2023/12/16 07:12:45;;;;;;;4.07;2.77;;;6.20;99.90;5.60;102684.00;;;;4910065;28;101825;-71
2023/12/16 07:15:11;;;;;;;5.47;3.53;;;5.80;99.90;5.70;102687.00;;;;4906856;28;113245;-73
2023/12/16 07:17:37;;;;;;;4.70;3.30;;;6.50;99.90;5.70;102686.00;;;;4909174;28;112227;-71
2023/12/16 07:20:03;;;;;;;3.90;3.30;;;5.90;99.90;5.70;102690.00;;;;4908955;28;88379;-73
2023/12/16 07:22:29;;;;;;;6.23;3.53;;;5.80;99.90;5.70;102688.00;;;;4908115;28;83639;-70
2023/12/16 07:24:56;;;;;;;6.03;4.07;;;5.60;99.90;5.70;102687.00;;;;4911612;28;83582;-73
2023/12/16 07:27:28;;;;;;;6.00;3.80;;;6.30;99.90;5.70;102678.00;;;;4912122;28;81771;-70
2023/12/16 07:29:54;;;;;;;10.80;3.87;;;5.90;99.90;5.70;102681.00;;;;4907562;28;85075;-71
2023/12/16 07:32:19;;;;;;;6.17;3.63;;;6.60;99.90;5.70;102673.00;;;;4904318;28;82837;-71
2023/12/16 07:34:48;;;;;;;5.93;3.47;;;5.90;99.90;5.70;102658.00;;;;4906511;28;102350;-73
2023/12/16 07:37:14;;;;;;;6.53;4.40;;;5.90;99.90;5.70;102657.00;;;;4908754;28;91169;-70
2023/12/16 07:39:39;;;;;;;5.40;4.07;;;5.90;99.90;5.80;102663.00;;;;4907622;28;108725;-71
2023/12/16 07:42:05;;;;;;;4.37;3.20;;;6.10;99.90;5.80;102678.00;;;;4906540;28;111163;-71
2023/12/16 07:44:31;;;;;;;12.23;5.17;;;6.00;99.90;5.80;102674.00;;;;4906642;28;103063;-70
2023/12/16 07:46:57;;;;;;;8.77;4.70;;;6.00;99.90;5.80;102684.00;;;;4905525;28;109917;-71
2023/12/16 07:49:25;;;;;;;5.40;4.17;;;6.00;99.90;5.90;102690.00;;;;4913013;28;110129;-72
2023/12/16 07:51:52;;;;;;;8.57;5.90;;;6.00;99.90;5.90;102699.00;;;;4908536;28;82179;-71
2023/12/16 07:54:17;;;;;;;7.00;4.70;;;6.10;99.90;5.90;102712.00;;;;4922182;28;82900;-69
2023/12/16 07:56:43;;;;;;;8.03;5.87;;;6.10;99.90;5.90;102703.00;;;;4906400;28;109746;-71
2023/12/16 07:59:09;;;;;;;8.87;5.13;;;6.10;99.90;6.00;102707.00;;;;4910417;28;108952;-73
2023/12/16 08:01:34;;;;;;;8.83;3.57;;;6.20;99.90;6.00;102703.00;;;;4914231;28;112287;-70
2023/12/16 08:04:00;;;;;;;9.13;4.87;;;6.40;99.90;6.00;102686.00;;;;4905273;28;113461;-69
2023/12/16 08:06:26;;;;;;;14.07;5.00;;;6.20;99.90;6.00;102675.00;;;;4903607;28;110423;-69
2023/12/16 08:08:51;;;;;;;9.30;4.30;;;6.30;99.90;6.10;102680.00;;;;4906187;28;108807;-69
2023/12/16 08:11:17;;;;;;;5.07;3.40;;;6.60;99.90;6.10;102687.00;;;;4909895;28;112789;-70
2023/12/16 08:13:43;;;;;;;6.97;3.67;;;6.90;99.90;6.10;102694.00;;;;4908158;28;82990;-69
2023/12/16 08:16:10;;;;;;;7.10;4.23;;;6.90;99.90;6.10;102696.00;;;;4905451;28;109862;-69
2023/12/16 08:18:35;;;;;;;8.63;4.30;;;6.30;99.90;6.20;102709.00;;;;4910350;28;82821;-68
2023/12/16 08:21:01;;;;;;;4.93;2.83;;;6.50;99.90;6.20;102705.00;;;;4907435;28;112704;-71
2023/12/16 08:23:27;;;;;;;7.47;3.87;;;6.30;99.90;6.20;102709.00;;;;4916750;28;83816;-68
2023/12/16 08:25:53;;;;;;;7.83;4.33;;;7.10;99.90;6.20;102712.00;;;;4904818;28;83003;-70
2023/12/16 08:28:18;;;;;;;8.93;4.03;;;6.40;99.90;6.30;102718.00;;;;4906791;28;109460;-69
2023/12/16 08:30:45;;;;;;;6.00;3.40;;;7.00;99.90;6.30;102717.00;;;;4904149;28;112699;-72
2023/12/16 08:33:10;;;;;;;12.27;4.33;;;6.50;99.90;6.30;102716.00;;;;4905618;28;84376;-69
2023/12/16 08:35:36;;;;;;;12.80;4.70;;;6.50;99.90;6.30;102713.00;;;;4906892;28;90443;-69
2023/12/16 08:38:03;;;;;;;5.97;3.60;;;6.50;99.90;6.40;102709.00;;;;4906106;28;83258;-70
2023/12/16 08:40:28;;;;;;;8.20;3.80;;;6.50;99.90;6.40;102711.00;;;;4914007;28;82068;-69
2023/12/16 08:42:54;;;;;;;7.77;4.13;;;6.70;99.90;6.40;102704.00;;;;4913145;28;111437;-71
2023/12/16 08:45:20;;;;;;;4.10;3.03;;;6.60;99.90;6.40;102705.00;;;;4906363;28;96709;-71
2023/12/16 08:47:45;;;;;;;6.17;3.83;;;6.60;99.90;6.50;102716.00;;;;4907431;28;107707;-71
2023/12/16 08:50:11;;;;;;;7.93;3.87;;;6.60;99.90;6.50;102712.00;;;;4906609;28;112153;-69
2023/12/16 08:52:37;;;;;;;5.30;3.80;;;7.10;99.90;6.50;102717.00;;;;4908161;28;109575;-69
2023/12/16 08:55:04;;;;;;;4.83;3.07;;;7.00;99.90;6.50;102718.00;;;;4906670;28;82774;-69
2023/12/16 08:57:30;;;;;;;3.60;3.00;;;6.70;99.90;6.50;102738.00;;;;4909176;28;94176;-68
2023/12/16 08:59:57;;;;;;;5.90;3.60;;;6.70;99.90;6.60;102741.00;;;;4909055;28;83471;-69
2023/12/16 09:02:23;;;;;;;3.20;2.70;;;6.70;99.90;6.60;102752.00;;;;4908034;28;84007;-69
2023/12/16 09:04:49;;;;;;;6.57;3.70;;;6.70;99.90;6.60;102750.00;;;;4911222;28;82177;-69
2023/12/16 09:07:15;;;;;;;3.80;2.77;;;6.70;99.90;6.60;102758.00;;;;4906151;28;82777;-70
2023/12/16 09:09:40;;;;;;;9.60;3.27;;;6.90;99.90;6.60;102762.00;;;;4906735;28;83288;-70
2023/12/16 09:12:07;;;;;;;5.40;3.40;;;6.80;99.90;6.70;102755.00;;;;4907110;28;83816;-69
2023/12/16 09:14:33;;;;;;;5.70;3.40;;;6.80;99.90;6.60;102756.00;;;;4906648;28;110066;-71
2023/12/16 09:17:00;;;;;;;9.23;2.83;;;6.80;99.90;6.70;102752.00;;;;4912795;28;82922;-68
2023/12/16 09:19:26;;;;;;;5.83;3.60;;;7.20;99.90;6.70;102753.00;;;;4922111;28;83973;-69
2023/12/16 09:21:51;;;;;;;6.37;3.10;;;6.90;99.90;6.70;102749.00;;;;4904722;28;98156;-69
2023/12/16 09:24:17;;;;;;;11.77;3.87;;;6.90;99.90;6.70;102753.00;;;;4906139;28;86588;-69
2023/12/16 09:26:44;;;;;;;5.97;3.17;;;6.80;99.90;6.70;102737.00;;;;4905404;28;82654;-69
2023/12/16 09:29:11;;;;;;;4.37;3.37;;;7.30;99.90;6.70;102754.00;;;;4908352;28;82127;-69
2023/12/16 09:31:37;;;;;;;11.70;3.57;;;7.10;99.90;6.80;102740.00;;;;4907707;28;111251;-70
2023/12/16 09:34:04;;;;;;;7.10;3.53;;;6.90;99.90;6.80;102734.00;;;;4904278;28;110293;-69
2023/12/16 09:36:30;;;;;;;2.97;2.53;;;7.00;99.90;6.80;102732.00;;;;4904096;28;83976;-71
2023/12/16 09:38:59;;;;;;;4.00;3.40;;;7.00;99.90;6.80;102721.00;;;;4890558;28;84845;-69
2023/12/16 09:41:33;;;;;;;6.90;3.50;;;7.20;99.90;6.80;102723.00;;;;4919033;28;90253;-69
2023/12/16 09:44:00;;;;;;;6.90;3.27;;;7.00;99.90;6.80;102717.00;;;;4907298;28;83355;-70
2023/12/16 09:46:36;;;;;;;5.60;3.10;;;7.20;99.90;6.80;102717.00;;;;4899167;28;83176;-70
2023/12/16 09:49:05;;;;;;;3.60;2.80;;;7.00;99.90;6.90;102714.00;;;;4904359;28;112158;-70
2023/12/16 09:51:31;;;;;;;4.43;2.83;;;7.30;99.90;6.80;102706.00;;;;4905496;28;113348;-69
2023/12/16 09:53:56;;;;;;;9.70;3.47;;;7.00;99.90;6.90;102701.00;;;;4909319;28;95351;-68
2023/12/16 09:56:22;;;;;;;6.10;2.97;;;7.00;99.90;6.90;102694.00;;;;4912578;28;97959;-70
2023/12/16 09:58:51;;;;;;;5.70;2.53;;;7.10;99.90;6.90;102697.00;;;;4910719;28;113021;-70
2023/12/16 10:01:17;;;;;;;4.93;3.10;;;7.00;99.90;7.00;102693.00;;;;4909039;28;83728;-68
2023/12/16 10:03:47;;;;;;;6.07;3.03;;;7.10;99.90;7.00;102697.00;;;;4909934;28;110025;-68
2023/12/16 10:06:13;;;;;;;6.10;3.20;;;7.10;99.90;7.00;102694.00;;;;4910565;28;82762;-69
2023/12/16 10:08:40;;;;;;;7.43;3.97;;;7.10;99.90;7.00;102690.00;;;;4912085;28;83118;-68
2023/12/16 10:11:06;;;;;;;3.70;2.87;;;7.20;99.90;7.10;102688.00;;;;4909531;28;83136;-68
2023/12/16 10:13:34;;;;;;;5.47;3.37;;;7.20;99.90;7.10;102683.00;;;;4910709;28;83012;-68
2023/12/16 10:16:00;;;;;;;3.33;2.57;;;7.30;99.90;7.20;102693.00;;;;4923282;28;94414;-68
2023/12/16 10:18:27;;;;;;;4.73;3.07;;;7.30;99.90;7.20;102695.00;;;;4911783;28;95617;-68
2023/12/16 10:20:56;;;;;;;6.67;2.80;;;7.30;99.90;7.30;102691.00;;;;4910907;28;83564;-70
2023/12/16 10:23:25;;;;;;;5.73;2.90;;;7.50;99.90;7.30;102695.00;;;;4924317;28;109693;-69
2023/12/16 10:25:51;;;;;;;7.90;3.47;;;7.50;99.90;7.40;102679.00;;;;4907900;28;83529;-70
2023/12/16 10:28:19;;;;;;;4.63;3.20;;;7.50;99.90;7.40;102677.00;;;;4910320;28;113041;-69
2023/12/16 10:30:45;;;;;;;5.17;3.07;;;7.60;99.90;7.40;102680.00;;;;4913327;28;85629;-70
2023/12/16 10:33:11;;;;;;;7.70;3.00;;;7.60;99.90;7.40;102684.00;;;;4912223;28;83040;-70
2023/12/16 10:35:37;;;;;;;5.77;3.37;;;8.00;99.90;7.50;102686.00;;;;4911314;28;83210;-68
2023/12/16 10:38:04;;;;;;;10.47;3.60;;;7.60;99.90;7.50;102688.00;;;;4907501;28;83854;-69
2023/12/16 10:40:31;;;;;;;1.90;1.80;;;7.60;99.90;7.50;102682.00;;;;4909990;28;83734;-69
2023/12/16 10:42:57;;;;;;;3.37;3.07;;;7.70;99.90;7.50;102677.00;;;;4909966;28;81803;-69
2023/12/16 10:45:25;;;;;;;12.23;3.77;;;7.70;99.90;7.50;102668.00;;;;4908582;28;82871;-69
2023/12/16 10:47:54;;;;;;;5.17;3.27;;;7.70;99.90;7.50;102654.00;;;;4909348;28;82958;-70
2023/12/16 10:50:22;;;;;;;5.73;2.87;;;7.70;99.90;7.60;102659.00;;;;4906969;28;83648;-68